Time;durP1;ratioP1;P1;durP2;ratioP2;P2;SDS_P1;SDS_P2;PMS_P1;PMS_P2;Temp;Humidity;BMP_temperature;BMP_pressure;BME280_temperature;BME280_humidity;BME280_pressure;Samples;Min_cycle;Max_cycle;Signal;HPM_P1;HPM_P2
2023/10/10 00:00:27;;;;;;;10.70;6.95;;;21.00;67.10;22.60;101923.00;;;;5073640;28;20195;-76
2023/10/10 00:02:55;;;;;;;8.73;6.32;;;21.00;67.10;22.70;101925.00;;;;5087309;28;20723;-76
2023/10/10 00:05:33;;;;;;;9.20;7.25;;;21.00;67.00;22.60;101928.00;;;;5077391;28;20195;-76
2023/10/10 00:08:05;;;;;;;7.90;6.47;;;21.00;67.10;22.60;101921.00;;;;5071810;28;20230;-76
2023/10/10 00:10:34;;;;;;;9.02;6.47;;;21.00;67.10;22.60;101924.00;;;;5068888;28;20441;-76
2023/10/10 00:13:03;;;;;;;8.52;6.30;;;21.00;67.10;22.60;101921.00;;;;5071315;28;20666;-76
2023/10/10 00:15:33;;;;;;;8.88;6.45;;;21.00;67.10;22.60;101919.00;;;;5087056;28;20190;-76
2023/10/10 00:18:06;;;;;;;9.25;7.18;;;21.00;67.10;22.60;101921.00;;;;5078300;28;20803;-76
2023/10/10 00:20:41;;;;;;;9.90;7.20;;;20.90;67.10;22.60;101926.00;;;;5080176;28;20215;-75
2023/10/10 00:23:11;;;;;;;9.48;6.22;;;20.90;67.10;22.60;101920.00;;;;5067218;28;20191;-75
2023/10/10 00:25:42;;;;;;;8.50;6.63;;;20.90;67.10;22.60;101922.00;;;;5070714;28;20239;-75
2023/10/10 00:28:18;;;;;;;8.27;6.80;;;20.90;67.10;22.60;101925.00;;;;5068371;28;20213;-75
2023/10/10 00:30:45;;;;;;;7.68;6.10;;;20.90;67.10;22.50;101916.00;;;;5077443;28;20271;-75
2023/10/10 00:33:18;;;;;;;9.30;6.97;;;20.90;67.10;22.50;101912.00;;;;5077795;28;20203;-75
2023/10/10 00:35:47;;;;;;;8.35;6.65;;;20.90;67.10;22.50;101917.00;;;;5068101;28;20230;-76
2023/10/10 00:38:19;;;;;;;9.68;6.68;;;20.80;67.10;22.50;101920.00;;;;5075695;28;20725;-75
2023/10/10 00:40:47;;;;;;;8.88;7.90;;;20.80;67.10;22.50;101907.00;;;;5079342;28;20288;-76
2023/10/10 00:43:17;;;;;;;9.07;7.22;;;20.80;67.10;22.50;101900.00;;;;5074322;28;20195;-75
2023/10/10 00:45:51;;;;;;;11.02;7.25;;;20.80;67.10;22.40;101904.00;;;;5080907;28;20230;-76
2023/10/10 00:48:22;;;;;;;8.48;6.53;;;20.80;67.20;22.40;101896.00;;;;5085749;28;20769;-76
2023/10/10 00:50:53;;;;;;;9.32;7.55;;;20.80;67.20;22.40;101891.00;;;;5070380;28;20514;-76
2023/10/10 00:53:23;;;;;;;11.63;7.20;;;20.70;67.20;22.40;101890.00;;;;5070418;28;20624;-76
2023/10/10 00:55:56;;;;;;;10.38;7.07;;;20.70;67.10;22.30;101886.00;;;;5079663;28;20196;-76
2023/10/10 00:58:35;;;;;;;11.68;8.07;;;20.70;67.20;22.30;101883.00;;;;5069527;28;20199;-76
2023/10/10 01:01:07;;;;;;;11.00;7.93;;;20.70;67.20;22.30;101882.00;;;;5069158;28;20260;-76
2023/10/10 01:03:35;;;;;;;10.10;8.38;;;20.70;67.10;22.30;101884.00;;;;5075592;28;20203;-76
2023/10/10 01:06:07;;;;;;;11.60;8.30;;;20.70;67.10;22.30;101879.00;;;;5075116;28;20198;-76
2023/10/10 01:08:57;;;;;;;13.48;7.72;;;20.60;67.00;22.10;101880.00;;;;5072391;28;20750;-75
2023/10/10 01:11:24;;;;;;;9.90;7.70;;;20.60;67.20;22.20;101869.00;;;;5075622;28;20679;-75
2023/10/10 01:13:53;;;;;;;16.90;8.18;;;20.60;67.00;22.20;101870.00;;;;5078265;28;20196;-75
2023/10/10 01:16:24;;;;;;;11.13;8.45;;;20.50;66.90;22.20;101877.00;;;;5070301;28;20711;-75
2023/10/10 01:18:57;;;;;;;9.35;7.60;;;20.50;66.90;22.10;101878.00;;;;5083326;28;20197;-75
2023/10/10 01:21:31;;;;;;;9.93;7.22;;;20.50;67.00;22.10;101870.00;;;;5070434;28;20202;-76
2023/10/10 01:24:06;;;;;;;10.30;7.63;;;20.50;66.90;22.10;101863.00;;;;5079023;28;20251;-75
2023/10/10 01:26:38;;;;;;;10.68;7.00;;;20.50;66.90;22.10;101865.00;;;;5078894;28;20208;-76
2023/10/10 01:29:14;;;;;;;9.88;7.50;;;20.40;66.80;22.00;101863.00;;;;5079282;28;20206;-75
2023/10/10 01:31:42;;;;;;;10.43;7.43;;;20.40;66.90;22.00;101869.00;;;;5078970;28;20245;-75
2023/10/10 01:34:10;;;;;;;10.07;7.88;;;20.30;66.80;22.00;101859.00;;;;5077391;28;20215;-75
2023/10/10 01:36:40;;;;;;;13.13;8.13;;;20.30;66.80;21.90;101858.00;;;;5081353;28;20220;-75
2023/10/10 01:39:28;;;;;;;8.48;7.38;;;20.30;66.80;21.80;101855.00;;;;5067416;28;20197;-75
2023/10/10 01:41:55;;;;;;;9.25;7.25;;;20.30;66.90;21.90;101856.00;;;;5072102;28;20202;-75
2023/10/10 01:44:23;;;;;;;9.43;7.68;;;20.20;66.80;21.80;101847.00;;;;5069218;28;20682;-76
2023/10/10 01:46:54;;;;;;;12.00;7.82;;;20.20;66.80;21.80;101845.00;;;;5071482;28;20221;-76
2023/10/10 01:49:25;;;;;;;10.45;8.05;;;20.20;66.90;21.80;101849.00;;;;5067005;28;20199;-76
2023/10/10 01:51:55;;;;;;;11.20;7.95;;;20.10;66.90;21.80;101846.00;;;;5068066;28;20210;-75
2023/10/10 01:54:29;;;;;;;9.73;7.80;;;20.10;66.90;21.70;101837.00;;;;5076163;28;20544;-75
2023/10/10 01:56:56;;;;;;;9.38;7.72;;;20.10;66.90;21.70;101841.00;;;;5073928;28;20213;-76
2023/10/10 01:59:25;;;;;;;14.88;7.72;;;20.10;66.90;21.70;101833.00;;;;5068472;28;20198;-75
2023/10/10 02:01:54;;;;;;;9.90;7.63;;;20.00;66.90;21.70;101843.00;;;;5069030;28;20233;-75
2023/10/10 02:04:35;;;;;;;11.75;8.07;;;20.00;67.00;21.70;101837.00;;;;5071092;28;20230;-76
2023/10/10 02:07:13;;;;;;;10.77;7.38;;;19.90;66.90;21.60;101832.00;;;;5077255;28;20206;-75
2023/10/10 02:09:40;;;;;;;11.82;7.93;;;19.90;66.90;21.60;101830.00;;;;5081756;28;20225;-76
2023/10/10 02:12:12;;;;;;;11.07;8.70;;;19.90;66.90;21.60;101832.00;;;;5071121;28;20318;-75
2023/10/10 02:14:43;;;;;;;8.50;7.38;;;19.90;66.90;21.50;101832.00;;;;5084968;28;20217;-76
2023/10/10 02:17:22;;;;;;;11.13;7.82;;;19.90;67.00;21.50;101834.00;;;;5074463;28;20194;-76
2023/10/10 02:19:59;;;;;;;9.85;7.35;;;19.80;66.90;21.50;101833.00;;;;5075037;28;20210;-76
2023/10/10 02:22:47;;;;;;;13.68;7.85;;;19.80;66.90;21.50;101828.00;;;;5068166;28;20203;-76
2023/10/10 02:28:20;;;;;;;9.18;6.90;;;19.80;67.00;21.40;101829.00;;;;4984078;28;20625;-76
2023/10/10 02:30:51;;;;;;;9.18;7.30;;;19.70;67.60;21.40;101816.00;;;;4982954;28;20253;-76
2023/10/10 02:33:30;;;;;;;13.35;9.43;;;19.70;66.90;21.40;101809.00;;;;5026951;28;20210;-76
2023/10/10 02:35:58;;;;;;;8.93;7.13;;;19.70;67.00;21.40;101817.00;;;;5077352;28;20214;-76
2023/10/10 02:38:33;;;;;;;12.23;7.95;;;19.70;67.10;21.30;101819.00;;;;5070756;28;20561;-76
2023/10/10 02:41:25;;;;;;;8.82;7.28;;;19.60;67.10;21.30;101812.00;;;;5067322;28;20203;-76
2023/10/10 02:43:56;;;;;;;11.88;7.95;;;19.60;67.20;21.30;101810.00;;;;5073272;28;20289;-76
2023/10/10 02:46:34;;;;;;;9.38;7.28;;;19.60;67.20;21.30;101805.00;;;;5087419;28;20569;-76
2023/10/10 02:49:09;;;;;;;10.85;7.50;;;19.60;67.30;21.30;101813.00;;;;5079565;28;20603;-76
2023/10/10 02:51:40;;;;;;;12.30;8.43;;;19.60;67.40;21.30;101814.00;;;;5072899;28;20222;-76
2023/10/10 02:54:28;;;;;;;10.93;8.02;;;19.60;67.50;21.30;101809.00;;;;5077660;28;20209;-76
2023/10/10 02:56:57;;;;;;;12.45;8.20;;;19.60;67.60;21.30;101804.00;;;;5086032;28;20621;-76
2023/10/10 02:59:31;;;;;;;13.30;9.05;;;19.60;67.60;21.30;101804.00;;;;5070661;28;20664;-76
2023/10/10 03:01:59;;;;;;;13.82;9.73;;;19.60;67.80;21.30;101804.00;;;;5082304;28;20224;-76
2023/10/10 03:07:08;;;;;;;11.70;10.23;;;19.60;67.90;21.30;101802.00;;;;5072872;28;20199;-76
2023/10/10 03:10:07;;;;;;;18.25;10.98;;;19.60;68.00;21.30;101809.00;;;;5082470;28;20212;-76
2023/10/10 03:12:29;;;;;;;12.07;10.23;;;19.60;68.10;21.30;101809.00;;;;5074164;28;20947;-76
2023/10/10 03:15:04;;;;;;;12.70;10.90;;;19.60;68.00;21.30;101805.00;;;;5072806;28;20202;-76
2023/10/10 03:17:43;;;;;;;17.42;9.80;;;19.60;68.10;21.30;101806.00;;;;5076413;28;20281;-76
2023/10/10 03:20:14;;;;;;;12.30;9.77;;;19.60;68.10;21.30;101801.00;;;;5070678;28;20618;-76
2023/10/10 03:23:07;;;;;;;15.27;9.80;;;19.60;68.10;21.30;101798.00;;;;5070646;28;20723;-76
2023/10/10 03:25:46;;;;;;;14.27;11.07;;;19.60;68.10;21.30;101803.00;;;;5081868;28;20333;-76
2023/10/10 03:28:19;;;;;;;16.55;10.75;;;19.60;68.20;21.30;101802.00;;;;5078512;28;20208;-76
2023/10/10 03:30:51;;;;;;;12.93;11.23;;;19.60;68.10;21.30;101798.00;;;;5072693;28;20250;-76
2023/10/10 03:33:35;;;;;;;16.33;11.23;;;19.60;68.10;21.30;101798.00;;;;5090358;28;20209;-76
2023/10/10 03:36:13;;;;;;;17.10;11.05;;;19.60;68.20;21.30;101791.00;;;;5083312;28;20221;-75
2023/10/10 05:23:34;;;;;;;13.50;11.25;;;19.50;68.70;21.10;101694.00;;;;5069261;28;20683;-76
2023/10/10 05:26:05;;;;;;;14.45;11.82;;;19.40;68.70;21.10;101688.00;;;;5082019;28;20256;-76
2023/10/10 05:28:33;;;;;;;13.80;11.07;;;19.50;68.70;21.10;101693.00;;;;5074816;28;20227;-76
2023/10/10 05:31:02;;;;;;;15.73;12.48;;;19.50;69.40;21.10;101695.00;;;;5071771;28;21110;-76
2023/10/10 05:33:30;;;;;;;13.77;11.35;;;19.50;68.70;21.10;101691.00;;;;5069494;28;20277;-76
2023/10/10 05:36:06;;;;;;;15.52;12.18;;;19.50;68.70;21.00;101689.00;;;;5071680;28;20751;-76
2023/10/10 05:38:38;;;;;;;16.70;12.48;;;19.40;68.70;21.10;101690.00;;;;5077010;28;20194;-77
2023/10/10 05:41:07;;;;;;;14.02;12.18;;;19.50;68.60;21.10;101682.00;;;;5070038;28;20233;-76
2023/10/10 05:43:34;;;;;;;16.70;12.00;;;19.40;68.50;21.00;101690.00;;;;5075595;28;20629;-77
2023/10/10 05:46:03;;;;;;;13.77;11.30;;;19.40;68.50;21.00;101688.00;;;;5076698;28;20661;-76
2023/10/10 05:48:32;;;;;;;16.20;12.15;;;19.40;68.50;21.00;101697.00;;;;5070003;28;20195;-76
2023/10/10 05:51:01;;;;;;;13.90;11.50;;;19.40;68.40;21.00;101691.00;;;;5078229;28;20217;-76
2023/10/10 05:53:32;;;;;;;14.73;12.18;;;19.40;68.40;21.00;101690.00;;;;5073187;28;20575;-77
2023/10/10 05:56:12;;;;;;;17.95;12.38;;;19.30;68.40;21.00;101680.00;;;;5070636;28;20198;-76
2023/10/10 05:58:42;;;;;;;17.60;13.55;;;19.30;68.30;21.00;101672.00;;;;5071608;28;20203;-76
2023/10/10 06:01:12;;;;;;;15.55;12.82;;;19.30;68.30;20.90;101675.00;;;;5073554;28;20226;-76
2023/10/10 06:03:41;;;;;;;15.93;12.68;;;19.30;68.30;20.90;101681.00;;;;5081355;28;20578;-76
2023/10/10 06:06:12;;;;;;;14.43;11.98;;;19.30;68.20;20.90;101681.00;;;;5074244;28;20352;-76
2023/10/10 06:08:41;;;;;;;13.25;11.32;;;19.20;68.20;20.90;101674.00;;;;5079390;28;20254;-76
2023/10/10 06:11:09;;;;;;;17.30;12.95;;;19.20;68.10;20.90;101671.00;;;;5067329;28;20307;-76
2023/10/10 06:13:39;;;;;;;16.83;12.00;;;19.20;68.10;20.80;101672.00;;;;5072454;28;20195;-76
2023/10/10 06:16:12;;;;;;;18.35;14.15;;;19.20;68.20;20.80;101678.00;;;;5068489;28;20252;-75
2023/10/10 06:18:44;;;;;;;15.82;13.07;;;19.10;68.10;20.80;101674.00;;;;5069423;28;20279;-76
2023/10/10 06:21:14;;;;;;;18.42;14.35;;;19.10;68.20;20.80;101678.00;;;;5067542;28;20195;-76
2023/10/10 06:23:44;;;;;;;17.83;13.35;;;19.10;68.20;20.80;101679.00;;;;5071123;28;20192;-75
2023/10/10 06:26:12;;;;;;;19.27;14.00;;;19.10;68.20;20.80;101678.00;;;;5070027;28;20213;-75
2023/10/10 06:28:45;;;;;;;16.80;12.77;;;19.10;68.20;20.80;101671.00;;;;5076578;28;20247;-76
2023/10/10 06:31:19;;;;;;;17.25;13.88;;;19.10;68.20;20.70;101680.00;;;;5077722;28;20255;-75
2023/10/10 06:33:49;;;;;;;18.65;14.45;;;19.10;68.30;20.70;101681.00;;;;5087054;28;20226;-76
2023/10/10 06:36:32;;;;;;;17.48;12.90;;;19.10;68.30;20.70;101677.00;;;;5092070;28;20202;-76
2023/10/10 06:41:48;;;;;;;16.95;11.95;;;19.00;68.20;20.70;101680.00;;;;5071530;28;20283;-76
2023/10/10 06:44:17;;;;;;;18.65;14.20;;;19.00;68.30;20.70;101681.00;;;;5071758;28;20286;-76
2023/10/10 06:46:48;;;;;;;16.27;14.00;;;19.00;68.40;20.70;101685.00;;;;5070841;28;20692;-76
2023/10/10 06:49:15;;;;;;;21.02;15.23;;;19.00;68.40;20.70;101676.00;;;;5071408;28;20195;-76
2023/10/10 06:51:44;;;;;;;18.40;13.90;;;19.00;68.50;20.70;101674.00;;;;5071124;28;20612;-76
2023/10/10 06:54:19;;;;;;;17.73;13.48;;;19.00;68.60;20.70;101674.00;;;;5070764;28;20286;-76
2023/10/10 06:56:54;;;;;;;18.65;13.85;;;19.00;68.70;20.80;101678.00;;;;5079706;28;20236;-76
2023/10/10 06:59:26;;;;;;;20.27;13.48;;;19.00;68.70;20.80;101682.00;;;;5081414;28;20201;-76
2023/10/10 07:01:54;;;;;;;17.02;12.95;;;19.10;68.80;20.80;101686.00;;;;5070624;28;20227;-76
2023/10/10 07:04:21;;;;;;;22.58;15.52;;;19.10;68.90;20.80;101682.00;;;;5070859;28;20249;-76
2023/10/10 07:06:51;;;;;;;16.98;13.50;;;19.10;68.90;20.90;101681.00;;;;5071188;28;20277;-76
2023/10/10 07:09:27;;;;;;;20.15;13.57;;;19.10;69.00;20.90;101678.00;;;;5071126;28;20206;-76
2023/10/10 07:11:55;;;;;;;18.38;14.95;;;19.10;68.90;20.90;101680.00;;;;5083084;28;20229;-75
2023/10/10 07:14:25;;;;;;;18.90;14.57;;;19.20;69.00;20.90;101673.00;;;;5071414;28;20195;-76
2023/10/10 07:16:56;;;;;;;16.05;13.50;;;19.20;68.90;20.90;101677.00;;;;5070681;28;20289;-77
2023/10/10 07:19:29;;;;;;;21.00;15.32;;;19.20;68.90;20.90;101679.00;;;;5071557;28;20205;-76
2023/10/10 07:21:59;;;;;;;22.55;14.88;;;19.20;68.90;20.90;101670.00;;;;5079953;28;20225;-76
2023/10/10 07:24:28;;;;;;;20.30;14.88;;;19.20;68.90;21.00;101677.00;;;;5071475;28;20661;-76
2023/10/10 07:27:11;;;;;;;22.15;14.85;;;19.30;68.90;21.00;101682.00;;;;5070345;28;20195;-76
2023/10/10 07:32:28;;;;;;;20.05;15.25;;;19.30;69.00;21.00;101680.00;;;;5069476;28;20222;-76
2023/10/10 07:34:55;;;;;;;21.67;14.20;;;19.40;69.00;21.10;101679.00;;;;5073618;28;20250;-76
2023/10/10 07:37:23;;;;;;;20.05;15.57;;;19.40;69.00;21.10;101673.00;;;;5077220;28;20198;-75
2023/10/10 07:39:55;;;;;;;23.73;15.55;;;19.40;69.10;21.10;101679.00;;;;5070922;28;20206;-76
2023/10/10 07:42:27;;;;;;;20.45;14.43;;;19.40;69.10;21.20;101674.00;;;;5070264;28;20794;-76
2023/10/10 07:44:55;;;;;;;16.52;12.85;;;19.50;69.10;21.20;101677.00;;;;5070221;28;20568;-76
2023/10/10 07:47:26;;;;;;;20.00;14.55;;;19.50;69.10;21.20;101679.00;;;;5069664;28;20734;-75
2023/10/10 07:49:54;;;;;;;18.77;15.80;;;19.50;69.10;21.30;101675.00;;;;5070588;28;20202;-75
2023/10/10 07:52:23;;;;;;;21.67;15.00;;;19.60;69.30;21.30;101678.00;;;;5080377;28;20241;-75
2023/10/10 07:55:02;;;;;;;20.70;15.35;;;19.60;69.20;21.30;101673.00;;;;5068747;28;20195;-75
2023/10/10 07:57:37;;;;;;;30.08;15.90;;;19.60;69.10;21.40;101679.00;;;;5074024;28;20194;-76
2023/10/10 08:00:17;;;;;;;19.70;15.82;;;19.70;69.20;21.40;101676.00;;;;5087378;28;20267;-76
2023/10/10 08:02:49;;;;;;;20.75;14.85;;;19.70;69.10;21.40;101682.00;;;;5075872;28;20233;-76
2023/10/10 08:05:19;;;;;;;17.90;15.02;;;19.70;69.10;21.40;101681.00;;;;5076798;28;20202;-77
2023/10/10 08:07:48;;;;;;;18.92;14.50;;;19.70;69.20;21.50;101682.00;;;;5075520;28;20575;-76
2023/10/10 08:10:29;;;;;;;20.73;15.35;;;19.80;69.10;21.50;101682.00;;;;5069564;28;20202;-76
2023/10/10 08:12:57;;;;;;;19.55;14.45;;;19.90;69.20;21.60;101683.00;;;;5074757;28;20249;-76
2023/10/10 08:15:25;;;;;;;19.70;14.52;;;19.90;69.20;21.60;101686.00;;;;5076273;28;20244;-76
2023/10/10 08:17:54;;;;;;;21.48;15.60;;;19.90;69.20;21.60;101686.00;;;;5080062;28;20726;-76
2023/10/10 08:23:24;;;;;;;19.05;14.50;;;20.00;69.00;21.70;101689.00;;;;5075878;28;20260;-76
2023/10/10 08:25:51;;;;;;;20.48;14.95;;;20.00;69.10;21.70;101688.00;;;;5068289;28;20213;-77
2023/10/10 08:28:18;;;;;;;18.80;13.93;;;20.10;69.10;21.70;101677.00;;;;5075035;28;20679;-76
2023/10/10 08:30:45;;;;;;;19.00;14.43;;;20.10;69.10;21.80;101681.00;;;;5079352;28;20789;-77
2023/10/10 08:33:12;;;;;;;18.02;14.30;;;20.10;69.20;21.80;101668.00;;;;5072456;28;20226;-76
2023/10/10 08:35:39;;;;;;;18.83;13.60;;;20.20;69.20;21.90;101672.00;;;;5071678;28;20226;-76
2023/10/10 08:38:06;;;;;;;18.83;13.27;;;20.20;69.20;21.90;101670.00;;;;5072139;28;20202;-76
2023/10/10 08:40:37;;;;;;;17.40;14.15;;;20.30;69.20;21.90;101675.00;;;;5072696;28;20289;-76
2023/10/10 08:43:07;;;;;;;20.88;14.93;;;20.30;69.10;22.00;101663.00;;;;5072962;28;20194;-76
2023/10/10 08:45:43;;;;;;;20.15;14.30;;;20.30;69.00;22.00;101665.00;;;;5081856;28;20187;-76
2023/10/10 08:48:13;;;;;;;18.42;13.35;;;20.40;69.10;22.10;101671.00;;;;5076809;28;20190;-77
2023/10/10 08:50:41;;;;;;;18.17;14.15;;;20.40;69.00;22.10;101668.00;;;;5077952;28;21134;-76
2023/10/10 08:53:11;;;;;;;20.15;12.95;;;20.50;68.90;22.10;101673.00;;;;5067842;28;20230;-77
2023/10/10 08:55:40;;;;;;;18.73;13.77;;;20.50;68.90;22.20;101677.00;;;;5083951;28;20244;-76
2023/10/10 08:58:08;;;;;;;19.00;14.18;;;20.50;68.80;22.20;101682.00;;;;5075420;28;21163;-76
2023/10/10 09:00:37;;;;;;;18.35;13.75;;;20.60;68.80;22.30;101683.00;;;;5070451;28;20205;-76
2023/10/10 09:03:07;;;;;;;19.30;12.95;;;20.60;68.60;22.30;101682.00;;;;5067595;28;20202;-76
2023/10/10 09:05:36;;;;;;;19.52;13.60;;;20.70;68.60;22.30;101681.00;;;;5067554;28;20225;-76
2023/10/10 09:08:14;;;;;;;20.75;12.43;;;20.70;68.60;22.40;101681.00;;;;5077238;28;20194;-76
2023/10/10 09:10:46;;;;;;;20.42;15.60;;;20.70;68.60;22.40;101667.00;;;;5074004;28;20203;-77
2023/10/10 09:13:16;;;;;;;17.88;12.88;;;20.80;68.50;22.50;101670.00;;;;5067752;28;20227;-76
2023/10/10 09:15:56;;;;;;;17.63;13.20;;;20.80;68.40;22.40;101675.00;;;;5072023;28;20208;-76
2023/10/10 09:18:26;;;;;;;15.48;12.23;;;20.90;68.30;22.60;101676.00;;;;5086090;28;20195;-76
2023/10/10 09:21:10;;;;;;;16.13;12.10;;;20.90;68.30;22.60;101665.00;;;;5075782;28;20732;-76
2023/10/10 09:23:42;;;;;;;19.17;12.60;;;21.00;68.40;22.70;101677.00;;;;5070844;28;20739;-76
2023/10/10 09:26:19;;;;;;;18.63;12.63;;;21.10;68.50;22.80;101674.00;;;;5082084;28;20226;-77
2023/10/10 09:28:55;;;;;;;20.63;13.77;;;21.10;68.30;22.90;101682.00;;;;5069421;28;20234;-76
2023/10/10 09:31:26;;;;;;;19.05;12.00;;;21.20;68.20;23.00;101676.00;;;;5067994;28;20202;-77
2023/10/10 09:33:55;;;;;;;15.63;12.32;;;21.30;68.20;23.00;101672.00;;;;5082913;28;20251;-77
2023/10/10 09:36:27;;;;;;;16.75;12.88;;;21.40;68.20;23.10;101669.00;;;;5068086;28;20243;-76
2023/10/10 09:39:08;;;;;;;16.75;11.52;;;21.40;68.00;23.10;101662.00;;;;5073272;28;20606;-76
2023/10/10 09:42:00;;;;;;;15.32;11.27;;;21.50;67.90;23.20;101665.00;;;;5068969;28;20226;-77
2023/10/10 09:44:49;;;;;;;15.80;12.00;;;21.50;67.60;23.20;101657.00;;;;5075832;28;20194;-76
2023/10/10 09:47:36;;;;;;;12.85;9.68;;;21.60;67.40;23.30;101664.00;;;;5068898;28;20296;-77
2023/10/10 09:52:53;;;;;;;12.90;9.23;;;21.70;67.60;23.50;101668.00;;;;5077995;28;20214;-77
2023/10/10 09:55:39;;;;;;;14.48;10.32;;;21.80;67.50;23.50;101664.00;;;;5074066;28;20198;-77
2023/10/10 09:58:24;;;;;;;11.98;9.95;;;21.90;67.40;23.60;101667.00;;;;5077831;28;20198;-77
2023/10/10 10:00:52;;;;;;;11.32;8.88;;;22.00;67.20;23.60;101665.00;;;;5072109;28;20187;-77
2023/10/10 10:03:42;;;;;;;15.07;10.90;;;22.10;67.20;23.70;101658.00;;;;5072089;28;20676;-76
2023/10/10 10:06:38;;;;;;;12.48;10.15;;;22.10;67.00;23.70;101657.00;;;;5079063;28;20622;-77
2023/10/10 10:09:46;;;;;;;15.40;10.40;;;22.20;66.90;23.80;101656.00;;;;5071744;28;20221;-77
2023/10/10 10:12:42;;;;;;;12.10;9.23;;;22.30;66.70;23.90;101657.00;;;;5071119;28;20219;-76
2023/10/10 10:15:28;;;;;;;13.88;10.30;;;22.40;66.90;24.10;101655.00;;;;5071110;28;20542;-75
2023/10/10 10:18:12;;;;;;;14.23;9.75;;;22.50;66.80;24.20;101660.00;;;;5072013;28;20187;-75
2023/10/10 10:20:46;;;;;;;14.48;10.80;;;22.60;66.70;24.40;101662.00;;;;5089088;28;20259;-76
2023/10/10 10:23:20;;;;;;;13.45;10.00;;;22.70;66.30;24.40;101654.00;;;;5076916;28;20244;-75
2023/10/10 10:26:04;;;;;;;13.50;9.98;;;22.80;66.10;24.50;101658.00;;;;5070365;28;20195;-75
2023/10/10 10:28:35;;;;;;;17.48;10.93;;;22.90;66.00;24.60;101656.00;;;;5070869;28;20211;-75
2023/10/10 10:31:07;;;;;;;11.82;9.65;;;23.00;66.30;24.70;101662.00;;;;5081414;28;21061;-76
2023/10/10 10:33:52;;;;;;;15.77;10.40;;;23.10;66.20;24.80;101671.00;;;;5078298;28;20249;-76
2023/10/10 10:36:20;;;;;;;12.45;9.68;;;23.20;65.90;24.90;101669.00;;;;5082431;28;20758;-75
2023/10/10 10:41:51;;;;;;;13.25;9.90;;;23.40;65.80;25.10;101668.00;;;;5060115;28;20328;-75
2023/10/10 10:44:46;;;;;;;11.23;8.15;;;23.50;65.50;25.10;101667.00;;;;5073251;28;20203;-76
2023/10/10 10:47:53;;;;;;;14.70;9.55;;;23.60;64.70;25.20;101660.00;;;;5071433;28;20226;-76
2023/10/10 10:50:42;;;;;;;10.80;8.52;;;23.70;64.60;25.30;101667.00;;;;5071640;28;20694;-76
2023/10/10 10:53:30;;;;;;;17.90;8.90;;;23.90;65.00;25.50;101660.00;;;;5070319;28;20223;-76
2023/10/10 11:01:47;;;;;;;16.63;9.98;;;24.20;64.90;25.70;101648.00;;;;5074134;28;20298;-76
2023/10/10 11:04:40;;;;;;;10.80;8.63;;;24.30;64.30;25.80;101647.00;;;;5075251;28;20231;-76
2023/10/10 11:07:25;;;;;;;13.15;8.70;;;24.30;64.10;26.00;101653.00;;;;5088516;28;20629;-76
2023/10/10 11:09:54;;;;;;;12.13;8.00;;;24.50;64.40;26.00;101645.00;;;;5070785;28;20799;-76
2023/10/10 11:12:31;;;;;;;10.40;8.27;;;24.60;64.20;26.10;101640.00;;;;5085709;28;20309;-76
2023/10/10 11:15:07;;;;;;;12.80;9.25;;;24.60;63.90;26.20;101638.00;;;;5089056;28;20197;-76
2023/10/10 11:17:38;;;;;;;12.07;8.93;;;24.70;63.90;26.30;101643.00;;;;5079643;28;20290;-76
2023/10/10 11:23:12;;;;;;;16.05;8.63;;;24.90;63.20;26.50;101652.00;;;;5073092;28;20308;-75
2023/10/10 11:25:46;;;;;;;11.40;9.18;;;25.00;63.10;26.60;101643.00;;;;5073952;28;20193;-76
2023/10/10 11:28:21;;;;;;;15.07;8.57;;;25.20;62.60;26.60;101637.00;;;;5089692;28;20190;-76
2023/10/10 11:30:52;;;;;;;16.35;9.73;;;25.20;62.50;26.60;101642.00;;;;5084011;28;20677;-76
2023/10/10 11:33:49;;;;;;;13.57;8.70;;;25.20;62.20;26.60;101643.00;;;;5069580;28;20254;-76
2023/10/10 11:36:29;;;;;;;13.45;8.90;;;25.30;61.50;26.70;101641.00;;;;5075731;28;20253;-76
2023/10/10 11:39:16;;;;;;;10.65;8.30;;;25.40;61.80;26.90;101638.00;;;;5082651;28;20621;-76
2023/10/10 11:41:45;;;;;;;11.50;8.95;;;25.50;62.00;27.00;101636.00;;;;5090127;28;20195;-76
2023/10/10 11:44:20;;;;;;;12.77;9.15;;;25.50;62.00;27.00;101629.00;;;;5075716;28;20829;-75
2023/10/10 11:46:49;;;;;;;13.98;9.05;;;25.60;61.20;27.10;101623.00;;;;5074450;28;20198;-76
2023/10/10 11:49:17;;;;;;;12.55;9.20;;;25.70;61.40;27.10;101617.00;;;;5088309;28;20684;-76
2023/10/10 11:51:46;;;;;;;14.35;10.07;;;25.70;61.20;27.10;101625.00;;;;5081158;28;20198;-75
2023/10/10 11:54:13;;;;;;;14.18;9.43;;;25.70;60.80;27.10;101622.00;;;;5074705;28;20252;-76
2023/10/10 11:56:40;;;;;;;12.05;9.07;;;25.80;60.80;27.10;101616.00;;;;5074853;28;20301;-75
2023/10/10 11:59:10;;;;;;;11.27;8.90;;;25.70;60.50;27.10;101609.00;;;;5074242;28;20197;-76
2023/10/10 12:01:51;;;;;;;11.50;9.00;;;25.70;60.50;27.10;101603.00;;;;5073795;28;20226;-77
2023/10/10 12:04:30;;;;;;;10.30;8.02;;;25.80;60.20;27.10;101606.00;;;;5074902;28;20301;-77
2023/10/10 12:07:01;;;;;;;13.85;8.70;;;25.80;60.40;27.10;101607.00;;;;5076963;28;20616;-77
2023/10/10 12:09:29;;;;;;;12.60;7.97;;;25.70;60.20;27.10;101602.00;;;;5079253;28;20194;-77
2023/10/10 12:12:01;;;;;;;11.25;8.10;;;25.70;60.50;27.20;101599.00;;;;5076939;28;20202;-77
2023/10/10 12:14:30;;;;;;;13.35;9.95;;;25.80;60.70;27.30;101599.00;;;;5082338;28;20222;-77
2023/10/10 12:16:59;;;;;;;14.88;8.93;;;25.80;60.50;27.30;101589.00;;;;5087767;28;20210;-77
2023/10/10 12:19:29;;;;;;;12.60;9.13;;;25.90;60.50;27.30;101584.00;;;;5083093;28;20191;-78
2023/10/10 12:22:03;;;;;;;11.55;8.38;;;26.00;60.10;27.40;101584.00;;;;5074528;28;20615;-78
2023/10/10 12:24:32;;;;;;;14.40;8.27;;;26.00;60.20;27.50;101583.00;;;;5072746;28;20223;-78
2023/10/10 12:26:59;;;;;;;11.50;8.38;;;26.10;60.20;27.50;101578.00;;;;5071542;28;20240;-77
2023/10/10 12:29:28;;;;;;;10.18;7.43;;;26.20;60.00;27.60;101580.00;;;;5075065;28;20203;-77
2023/10/10 12:31:57;;;;;;;13.70;8.80;;;26.30;60.00;27.70;101568.00;;;;5084351;28;20194;-77
2023/10/10 12:34:24;;;;;;;13.32;8.63;;;26.40;59.80;27.70;101574.00;;;;5075375;28;20231;-77
2023/10/10 12:36:59;;;;;;;10.90;8.05;;;26.50;59.60;27.80;101582.00;;;;5080254;28;20424;-77
2023/10/10 12:39:28;;;;;;;10.85;7.95;;;26.60;59.60;27.90;101570.00;;;;5089798;28;20185;-77
2023/10/10 12:41:57;;;;;;;13.13;8.10;;;26.70;59.70;28.00;101569.00;;;;5081862;28;20210;-77
2023/10/10 12:44:24;;;;;;;13.57;7.50;;;26.80;59.70;28.10;101568.00;;;;5070943;28;20202;-77
2023/10/10 12:46:54;;;;;;;12.40;7.85;;;26.90;59.80;28.30;101575.00;;;;5070037;28;20569;-77
2023/10/10 12:49:28;;;;;;;12.68;7.80;;;27.00;59.60;28.40;101572.00;;;;5069167;28;20257;-77
2023/10/10 12:51:57;;;;;;;10.48;7.55;;;27.20;59.40;28.60;101570.00;;;;5068667;28;20201;-77
2023/10/10 12:54:34;;;;;;;8.93;5.65;;;27.40;59.30;28.70;101565.00;;;;5068805;28;20214;-77
2023/10/10 12:57:06;;;;;;;9.55;6.90;;;27.60;59.20;28.90;101562.00;;;;5076313;28;20619;-77
2023/10/10 12:59:33;;;;;;;13.07;7.78;;;27.70;58.70;29.10;101563.00;;;;5081765;28;20208;-78
2023/10/10 13:02:03;;;;;;;16.17;7.00;;;27.90;58.80;29.30;101559.00;;;;5075703;28;20533;-77
2023/10/10 13:04:32;;;;;;;8.75;6.65;;;28.00;58.60;29.40;101562.00;;;;5081212;28;20198;-77
2023/10/10 13:07:03;;;;;;;14.68;6.97;;;28.20;58.40;29.60;101569.00;;;;5077931;28;20191;-76
2023/10/10 13:09:31;;;;;;;9.27;6.82;;;28.30;58.30;30.00;101566.00;;;;5078902;28;20202;-77
2023/10/10 13:12:02;;;;;;;10.38;6.68;;;28.50;58.30;30.30;101563.00;;;;5074976;28;20187;-76
2023/10/10 13:14:32;;;;;;;8.98;5.72;;;28.70;58.30;30.70;101574.00;;;;5081291;28;20225;-76
2023/10/10 13:17:28;;;;;;;10.20;5.88;;;29.00;57.90;31.00;101573.00;;;;5073875;28;20649;-76